Terminal Aerodrome Forecast
Issued by NWS Charleston, WV

Current Version | Previous Version | Text Only | Print | Product List | Glossary Off
Versions: 1 2 3 4 5 6 7 8 9 10 11 12 13 14 15 16 17 18 19 20 21 22 23 24 25

000
FTUS41 KRLX 180700 AAA
TAFEKN
TAF AMD
KEKN 180756Z 1808/1906 00000KT 3SM BR SCT001 BKN040
      TEMPO 1808/1812 1SM BR
     FM181400 14004KT P6SM BKN035
     FM181600 15005KT 5SM BR VCTS OVC020CB
     FM190000 00000KT 6SM BR VCTS BKN015CB
     FM190400 00000KT P6SM BKN010=

USA.gov is the U.S. government's official web portal to all federal, state and local government web resources and services.